^^
Saratoga-Weather Station Historical Data
Daily Summary for July 21, 2020 Units:  Metric    English   Both
Daily Weekly Monthly Yearly Custom
  High: Low: Average:
Temperature: 29.6 °C 21.9 °C 25.2 °C
Dew Point: 19.7 °C 16.4 °C 17.9 °C
Humidity: 79% 50% 64%
Wind Speed: 13km/h 0km/h 2.1km/h
Wind Gust: 20.9km/h - -
Wind- - WSW
Pressure: 1010.8 hPa 1005.8 hPa -
Precipitation: 0.0 mm    
Historical Graphs
 
 
Tabular Data for July 21, 2020
Time Temperature Dew Point Pressure Wind Wind Speed Wind Gust Humidity Rainfall Rate (Hourly) solar
00:04 25.6 °C 17.8 °C 1005.8 hPa SW 3.2 km/h 3.2 km/h 62% 0.0 mm 0 W/m2
00:09 25.2 °C 17.9 °C 1005.8 hPa Calm   1.6 km/h 64% 0.0 mm 0 W/m2
00:14 24.9 °C 17.9 °C 1005.8 hPa Calm   1.6 km/h 65% 0.0 mm 0 W/m2
00:19 24.7 °C 17.9 °C 1005.8 hPa SSW 1.4 km/h 1.6 km/h 66% 0.0 mm 0 W/m2
00:24 24.4 °C 17.9 °C 1005.8 hPa Calm   1.6 km/h 67% 0.0 mm 0 W/m2
00:30 24.2 °C 17.9 °C 1005.8 hPa SSW 1.4 km/h 3.2 km/h 68% 0.0 mm 0 W/m2
00:35 24.1 °C 17.8 °C 1005.8 hPa Calm     68% 0.0 mm 0 W/m2
00:40 23.9 °C 17.9 °C 1006.1 hPa Calm   3.2 km/h 69% 0.0 mm 0 W/m2
00:45 23.8 °C 17.8 °C 1005.8 hPa Calm   3.2 km/h 69% 0.0 mm 0 W/m2
00:50 23.7 °C 17.7 °C 1006.1 hPa Calm     69% 0.0 mm 0 W/m2
00:55 23.6 °C 17.8 °C 1006.1 hPa Calm     70% 0.0 mm 0 W/m2
01:00 23.4 °C 17.6 °C 1006.1 hPa Calm   3.2 km/h 70% 0.0 mm 0 W/m2
01:05 23.3 °C 17.5 °C 1006.1 hPa Calm   1.6 km/h 70% 0.0 mm 0 W/m2
01:10 23.3 °C 17.7 °C 1006.1 hPa Calm     71% 0.0 mm 0 W/m2
01:15 23.2 °C 17.6 °C 1006.1 hPa Calm     71% 0.0 mm 0 W/m2
01:20 23 °C 17.5 °C 1006.1 hPa Calm     71% 0.0 mm 0 W/m2
01:25 22.9 °C 17.4 °C 1006.1 hPa Calm   1.6 km/h 71% 0.0 mm 0 W/m2
01:30 22.9 °C 17.4 °C 1006.1 hPa Calm     71% 0.0 mm 0 W/m2
01:36 22.8 °C 17.5 °C 1006.1 hPa Calm     72% 0.0 mm 0 W/m2
01:41 22.7 °C 17.6 °C 1006.1 hPa Calm   1.6 km/h 73% 0.0 mm 0 W/m2
01:46 22.6 °C 17.5 °C 1006.1 hPa Calm   1.6 km/h 73% 0.0 mm 0 W/m2
01:51 22.5 °C 17.6 °C 1006.1 hPa Calm     74% 0.0 mm 0 W/m2
01:56 22.4 °C 17.5 °C 1006.1 hPa Calm     74% 0.0 mm 0 W/m2
02:01 22.3 °C 17.4 °C 1006.1 hPa Calm     74% 0.0 mm 0 W/m2
02:06 22.3 °C 17.4 °C 1005.8 hPa Calm   1.6 km/h 74% 0.0 mm 0 W/m2
02:11 22.2 °C 17.6 °C 1006.1 hPa Calm   1.6 km/h 75% 0.0 mm 0 W/m2
02:16 22.2 °C 17.3 °C 1005.8 hPa Calm   1.6 km/h 74% 0.0 mm 0 W/m2
02:21 22.2 °C 16.9 °C 1005.8 hPa ENE 1.4 km/h 1.6 km/h 72% 0.0 mm 0 W/m2
02:26 22.3 °C 17 °C 1006.1 hPa Calm   3.2 km/h 72% 0.0 mm 0 W/m2
02:31 22.5 °C 17.2 °C 1006.1 hPa Calm   1.6 km/h 72% 0.0 mm 0 W/m2
02:36 22.6 °C 16.8 °C 1005.8 hPa North 1.4 km/h 1.6 km/h 70% 0.0 mm 0 W/m2
02:41 22.7 °C 17.4 °C 1005.8 hPa Calm   1.6 km/h 72% 0.0 mm 0 W/m2
02:46 22.7 °C 17.2 °C 1005.8 hPa WSW 1.4 km/h 1.6 km/h 71% 0.0 mm 0 W/m2
02:51 22.7 °C 17.4 °C 1005.8 hPa WSW 1.4 km/h 3.2 km/h 72% 0.0 mm 0 W/m2
02:56 22.7 °C 17.2 °C 1005.8 hPa Calm   1.6 km/h 71% 0.0 mm 0 W/m2
03:01 22.8 °C 17.5 °C 1005.8 hPa WSW 3.2 km/h 3.2 km/h 72% 0.0 mm 0 W/m2
03:06 22.8 °C 17.3 °C 1005.8 hPa Calm   3.2 km/h 71% 0.0 mm 0 W/m2
03:11 22.8 °C 17 °C 1005.8 hPa SW 1.4 km/h 1.6 km/h 70% 0.0 mm 0 W/m2
03:16 22.8 °C 17 °C 1005.8 hPa Calm   3.2 km/h 70% 0.0 mm 0 W/m2
03:21 22.8 °C 17.3 °C 1005.8 hPa SW 1.4 km/h 3.2 km/h 71% 0.0 mm 0 W/m2
03:26 22.8 °C 17.3 °C 1005.8 hPa Calm   3.2 km/h 71% 0.0 mm 0 W/m2
03:31 22.7 °C 16.9 °C 1005.8 hPa Calm   3.2 km/h 70% 0.0 mm 0 W/m2
03:36 22.7 °C 16.9 °C 1005.8 hPa SE 1.4 km/h 3.2 km/h 70% 0.0 mm 0 W/m2
03:41 22.7 °C 16.9 °C 1005.8 hPa East 1.4 km/h 3.2 km/h 70% 0.0 mm 0 W/m2
03:47 22.8 °C 16.6 °C 1005.8 hPa Calm   3.2 km/h 68% 0.0 mm 0 W/m2
03:52 23 °C 17.5 °C 1005.8 hPa Calm     71% 0.0 mm 0 W/m2
03:57 23 °C 17.2 °C 1005.8 hPa East 1.4 km/h 3.2 km/h 70% 0.0 mm 0 W/m2
04:02 22.9 °C 17.6 °C 1005.8 hPa East 1.4 km/h 3.2 km/h 72% 0.0 mm 0 W/m2
04:07 22.8 °C 17.5 °C 1005.8 hPa Calm   1.6 km/h 72% 0.0 mm 0 W/m2
04:12 22.7 °C 17.4 °C 1005.8 hPa Calm     72% 0.0 mm 0 W/m2
04:17 22.5 °C 17.2 °C 1005.8 hPa South 1.4 km/h 3.2 km/h 72% 0.0 mm 0 W/m2
04:22 22.3 °C 17 °C 1005.8 hPa Calm   1.6 km/h 72% 0.0 mm 0 W/m2
04:27 22.3 °C 17.2 °C 1005.8 hPa Calm   3.2 km/h 73% 0.0 mm 0 W/m2
04:32 22.2 °C 17.1 °C 1005.8 hPa Calm   1.6 km/h 73% 0.0 mm 0 W/m2
04:37 22.1 °C 17.2 °C 1005.8 hPa South 1.4 km/h 1.6 km/h 74% 0.0 mm 0 W/m2
04:42 22 °C 17.4 °C 1005.8 hPa Calm     75% 0.0 mm 0 W/m2
04:47 21.9 °C 17.3 °C 1005.8 hPa Calm     75% 0.0 mm 0 W/m2
04:52 21.9 °C 17.3 °C 1005.8 hPa Calm   3.2 km/h 75% 0.0 mm 0 W/m2
04:57 21.9 °C 17.1 °C 1005.8 hPa Calm     74% 0.0 mm 0 W/m2
05:02 21.9 °C 17.3 °C 1005.8 hPa Calm     75% 0.0 mm 0 W/m2
05:08 21.9 °C 17.3 °C 1005.8 hPa Calm   1.6 km/h 75% 0.0 mm 0 W/m2
05:13 21.9 °C 17.3 °C 1005.8 hPa SSE 1.4 km/h 3.2 km/h 75% 0.0 mm 0 W/m2
05:18 22.1 °C 17.2 °C 1005.8 hPa ENE 3.2 km/h 4.8 km/h 74% 0.0 mm 0 W/m2
05:23 22.2 °C 17.3 °C 1005.8 hPa Calm   1.6 km/h 74% 0.0 mm 0 W/m2
05:28 22.2 °C 17.3 °C 1005.8 hPa Calm   4.8 km/h 74% 0.0 mm 0 W/m2
05:33 22.3 °C 17.4 °C 1005.8 hPa Calm     74% 0.0 mm 0 W/m2
05:38 22.2 °C 17.3 °C 1005.8 hPa Calm     74% 0.0 mm 0 W/m2
05:43 22.2 °C 17.3 °C 1005.8 hPa Calm     74% 0.0 mm 0 W/m2
05:48 22.2 °C 17.1 °C 1005.8 hPa NNW 1.4 km/h 4.8 km/h 73% 0.0 mm 0 W/m2
05:53 22.3 °C 17.2 °C 1005.8 hPa Calm     73% 0.0 mm 0 W/m2
05:58 22.4 °C 17.5 °C 1005.8 hPa NW 4.8 km/h 4.8 km/h 74% 0.0 mm 0 W/m2
06:03 22.4 °C 17.3 °C 1006.1 hPa Calm   1.6 km/h 73% 0.0 mm 0 W/m2
06:08 22.6 °C 17.3 °C 1006.1 hPa ESE 1.4 km/h 3.2 km/h 72% 0.0 mm 0 W/m2
06:13 22.7 °C 17.2 °C 1006.1 hPa Calm   1.6 km/h 71% 0.0 mm 0 W/m2
06:18 22.9 °C 16.9 °C 1006.1 hPa Calm   1.6 km/h 69% 0.0 mm 0 W/m2
06:23 23.1 °C 17.1 °C 1006.4 hPa Calm   4.8 km/h 69% 0.0 mm 0 W/m2
06:28 23.3 °C 17.1 °C 1006.4 hPa ENE 1.4 km/h 3.2 km/h 68% 0.0 mm 0 W/m2
06:33 23.5 °C 17 °C 1006.4 hPa Calm   3.2 km/h 67% 0.0 mm 5 W/m2
06:38 23.7 °C 16.7 °C 1006.4 hPa Calm     65% 0.0 mm 5 W/m2
06:43 24 °C 16.8 °C 1006.4 hPa NE 3.2 km/h 4.8 km/h 64% 0.0 mm 7 W/m2
06:48 24.2 °C 16.7 °C 1006.4 hPa NE 4.7 km/h 6.4 km/h 63% 0.0 mm 9 W/m2
06:53 24.4 °C 16.6 °C 1006.4 hPa East 4.7 km/h 6.4 km/h 62% 0.0 mm 11 W/m2
06:58 24.7 °C 16.7 °C 1006.4 hPa SE 3.2 km/h 3.2 km/h 61% 0.0 mm 12 W/m2
07:03 24.7 °C 16.7 °C 1006.4 hPa Calm   6.4 km/h 61% 0.0 mm 19 W/m2
07:08 24.7 °C 16.4 °C 1006.4 hPa Calm   8 km/h 60% 0.0 mm 26 W/m2
07:13 24.7 °C 16.7 °C 1006.8 hPa North 1.4 km/h 3.2 km/h 61% 0.0 mm 30 W/m2
07:19 24.8 °C 16.5 °C 1006.8 hPa WNW 3.2 km/h 8 km/h 60% 0.0 mm 32 W/m2
07:24 24.8 °C 16.5 °C 1007.1 hPa Calm   1.6 km/h 60% 0.0 mm 32 W/m2
07:29 24.9 °C 16.6 °C 1007.1 hPa WNW 3.2 km/h 14.5 km/h 60% 0.0 mm 39 W/m2
07:34 25 °C 16.4 °C 1007.5 hPa NW 4.7 km/h 4.8 km/h 59% 0.0 mm 54 W/m2
07:39 25.1 °C 16.5 °C 1007.5 hPa NNE 7.9 km/h 11.3 km/h 59% 0.0 mm 70 W/m2
07:45 25.2 °C 16.9 °C 1007.5 hPa WNW 3.2 km/h 6.4 km/h 60% 0.0 mm 79 W/m2
07:50 25.3 °C 17 °C 1007.5 hPa NNW 6.4 km/h 9.7 km/h 60% 0.0 mm 74 W/m2
07:55 25.3 °C 17 °C 1007.5 hPa NNW 3.2 km/h 11.3 km/h 60% 0.0 mm 95 W/m2
08:00 25.4 °C 17.3 °C 1007.5 hPa NW 3.2 km/h 6.4 km/h 61% 0.0 mm 90 W/m2
08:05 25.3 °C 17.5 °C 1007.5 hPa West 3.2 km/h 17.7 km/h 62% 0.0 mm 86 W/m2
08:10 25.1 °C 17 °C 1007.8 hPa West 9.7 km/h 11.3 km/h 61% 0.0 mm 76 W/m2
08:15 24.9 °C 16.9 °C 1007.8 hPa West 3.2 km/h 6.4 km/h 61% 0.0 mm 76 W/m2
08:20 24.8 °C 16.8 °C 1007.8 hPa West 13 km/h 12.9 km/h 61% 0.0 mm 86 W/m2
08:25 24.6 °C 16.8 °C 1008.1 hPa WSW 7.9 km/h 20.9 km/h 62% 0.0 mm 81 W/m2
08:30 24.4 °C 16.9 °C 1008.1 hPa WNW 11.1 km/h 16.1 km/h 63% 0.0 mm 69 W/m2
08:35 24.3 °C 16.8 °C 1008.5 hPa WNW 4.7 km/h 14.5 km/h 63% 0.0 mm 62 W/m2
08:40 24.2 °C 16.7 °C 1008.8 hPa West 6.4 km/h 16.1 km/h 63% 0.0 mm 67 W/m2
08:45 24.1 °C 16.9 °C 1008.8 hPa WNW 6.4 km/h 11.3 km/h 64% 0.0 mm 77 W/m2
08:51 24.1 °C 16.9 °C 1009.1 hPa WNW 7.9 km/h 9.7 km/h 64% 0.0 mm 63 W/m2
08:56 24.1 °C 17.1 °C 1009.1 hPa West 3.2 km/h 6.4 km/h 65% 0.0 mm 62 W/m2
09:01 24 °C 16.8 °C 1008.8 hPa NW 4.7 km/h 6.4 km/h 64% 0.0 mm 58 W/m2
09:06 23.9 °C 16.9 °C 1007.8 hPa North 3.2 km/h 6.4 km/h 65% 0.0 mm 67 W/m2
09:11 23.9 °C 17.2 °C 1008.1 hPa NW 1.4 km/h 4.8 km/h 66% 0.0 mm 105 W/m2
09:16 23.9 °C 17.2 °C 1007.8 hPa NW 3.2 km/h 3.2 km/h 66% 0.0 mm 105 W/m2
09:21 23.9 °C 17.2 °C 1008.8 hPa West 4.7 km/h 6.4 km/h 66% 0.0 mm 132 W/m2
09:26 23.9 °C 17.4 °C 1008.8 hPa Calm   1.6 km/h 67% 0.0 mm 109 W/m2
09:31 23.9 °C 17.2 °C 1008.8 hPa Calm   1.6 km/h 66% 0.0 mm 111 W/m2
09:36 24 °C 17.3 °C 1008.5 hPa Calm     66% 0.0 mm 88 W/m2
09:41 24.1 °C 17.6 °C 1008.5 hPa Calm   1.6 km/h 67% 0.0 mm 153 W/m2
09:46 24.1 °C 17.8 °C 1008.8 hPa Calm     68% 0.0 mm 104 W/m2
09:51 24.1 °C 18.3 °C 1008.8 hPa SW 1.4 km/h 1.6 km/h 70% 0.0 mm 93 W/m2
09:56 24.1 °C 18.1 °C 1009.5 hPa SW 1.4 km/h 3.2 km/h 69% 0.0 mm 95 W/m2
10:01 24 °C 17.7 °C 1009.5 hPa West 3.2 km/h 3.2 km/h 68% 0.0 mm 90 W/m2
10:06 23.9 °C 18.3 °C 1009.1 hPa SW 1.4 km/h 3.2 km/h 71% 0.0 mm 63 W/m2
10:11 23.8 °C 18.4 °C 1008.8 hPa Calm   1.6 km/h 72% 0.0 mm 77 W/m2
10:16 23.7 °C 19 °C 1008.5 hPa Calm     75% 0.0 mm 70 W/m2
10:21 23.6 °C 19.3 °C 1008.8 hPa SSW 3.2 km/h 3.2 km/h 77% 0.0 mm 142 W/m2
10:26 23.3 °C 19.2 °C 1009.1 hPa Calm   1.6 km/h 78% 0.0 mm 207 W/m2
10:31 23.3 °C 19.5 °C 1009.5 hPa SSW 3.2 km/h 3.2 km/h 79% 0.0 mm 199 W/m2
10:36 23.5 °C 18.8 °C 1009.5 hPa ENE 3.2 km/h 3.2 km/h 75% 0.0 mm 227 W/m2
10:41 23.7 °C 18.8 °C 1009.8 hPa WNW 3.2 km/h 4.8 km/h 74% 0.0 mm 200 W/m2
10:46 23.8 °C 18.7 °C 1009.5 hPa WNW 1.4 km/h 3.2 km/h 73% 0.0 mm 236 W/m2
10:51 23.9 °C 18.3 °C 1009.8 hPa Calm   3.2 km/h 71% 0.0 mm 178 W/m2
10:56 24.1 °C 18.5 °C 1009.1 hPa ENE 1.4 km/h 3.2 km/h 71% 0.0 mm 165 W/m2
11:01 24.2 °C 18.6 °C 1009.5 hPa Calm   3.2 km/h 71% 0.0 mm 248 W/m2
11:06 24.4 °C 19.2 °C 1009.8 hPa East 1.4 km/h 4.8 km/h 73% 0.0 mm 765 W/m2
11:12 24.7 °C 18.9 °C 1009.8 hPa WSW 3.2 km/h 6.4 km/h 70% 0.0 mm 308 W/m2
11:17 24.8 °C 18.3 °C 1010.2 hPa WNW 3.2 km/h 4.8 km/h 67% 0.0 mm 281 W/m2
11:22 25.1 °C 18.3 °C 1010.2 hPa WSW 4.7 km/h 4.8 km/h 66% 0.0 mm 323 W/m2
11:27 25.2 °C 18.2 °C 1010.2 hPa WSW 1.4 km/h 8 km/h 65% 0.0 mm 260 W/m2
11:32 25.2 °C 18.4 °C 1009.8 hPa Calm   1.6 km/h 66% 0.0 mm 193 W/m2
11:37 25.3 °C 18 °C 1009.8 hPa Calm   8 km/h 64% 0.0 mm 181 W/m2
11:42 25.4 °C 18.3 °C 1009.8 hPa Calm   1.6 km/h 65% 0.0 mm 178 W/m2
11:47 25.6 °C 18.3 °C 1009.8 hPa Calm     64% 0.0 mm 183 W/m2
11:52 25.7 °C 18.4 °C 1009.8 hPa Calm   1.6 km/h 64% 0.0 mm 236 W/m2
11:57 25.7 °C 18.4 °C 1009.8 hPa Calm     64% 0.0 mm 248 W/m2
12:02 25.9 °C 18.3 °C 1010.2 hPa Calm     63% 0.0 mm 223 W/m2
12:07 26.1 °C 18.8 °C 1010.2 hPa Calm     64% 0.0 mm 246 W/m2
12:12 26.2 °C 18.8 °C 1010.2 hPa Calm     64% 0.0 mm 229 W/m2
12:17 26.3 °C 18.7 °C 1010.2 hPa Calm     63% 0.0 mm 200 W/m2
12:22 26.4 °C 18.5 °C 1009.8 hPa Calm   1.6 km/h 62% 0.0 mm 188 W/m2
12:27 26.4 °C 18.8 °C 1010.2 hPa WNW 3.2 km/h 3.2 km/h 63% 0.0 mm 130 W/m2
12:32 26.3 °C 18.7 °C 1010.2 hPa Calm   1.6 km/h 63% 0.0 mm 114 W/m2
12:37 26.2 °C 19.3 °C 1010.2 hPa Calm     66% 0.0 mm 123 W/m2
12:42 26.2 °C 19.3 °C 1010.2 hPa Calm     66% 0.0 mm 107 W/m2
12:47 26.2 °C 19.6 °C 1010.2 hPa Calm     67% 0.0 mm 118 W/m2
12:52 26.1 °C 19.2 °C 1010.2 hPa Calm     66% 0.0 mm 151 W/m2
12:57 26.1 °C 19.7 °C 1010.2 hPa Calm     68% 0.0 mm 148 W/m2
13:02 26.1 °C 19.5 °C 1010.2 hPa WNW 1.4 km/h 3.2 km/h 67% 0.0 mm 165 W/m2
13:07 26 °C 18.4 °C 1010.2 hPa Calm   3.2 km/h 63% 0.0 mm 202 W/m2
13:12 26.1 °C 18.5 °C 1010.2 hPa Calm   1.6 km/h 63% 0.0 mm 223 W/m2
13:17 26.2 °C 18.1 °C 1010.2 hPa NW 4.7 km/h 4.8 km/h 61% 0.0 mm 225 W/m2
13:22 26.2 °C 18.3 °C 1010.5 hPa WSW 1.4 km/h 4.8 km/h 62% 0.0 mm 214 W/m2
13:27 26.3 °C 18.2 °C 1010.5 hPa Calm   1.6 km/h 61% 0.0 mm 260 W/m2
13:32 26.4 °C 18.3 °C 1010.5 hPa NW 1.4 km/h 4.8 km/h 61% 0.0 mm 223 W/m2
13:37 26.6 °C 18.5 °C 1010.5 hPa WNW 1.4 km/h 1.6 km/h 61% 0.0 mm 253 W/m2
13:42 26.7 °C 18.6 °C 1010.5 hPa NW 3.2 km/h 4.8 km/h 61% 0.0 mm 287 W/m2
13:47 26.8 °C 18.6 °C 1010.5 hPa Calm   1.6 km/h 61% 0.0 mm 380 W/m2
13:52 27 °C 18.3 °C 1010.5 hPa NW 1.4 km/h 4.8 km/h 59% 0.0 mm 322 W/m2
13:57 27.1 °C 18.4 °C 1010.2 hPa NW 1.4 km/h 1.6 km/h 59% 0.0 mm 316 W/m2
14:02 27.3 °C 18.3 °C 1010.5 hPa Calm   4.8 km/h 58% 0.0 mm 367 W/m2
14:07 27.5 °C 18.2 °C 1010.5 hPa Calm   6.4 km/h 57% 0.0 mm 485 W/m2
14:12 27.7 °C 18.4 °C 1010.5 hPa West 1.4 km/h 6.4 km/h 57% 0.0 mm 483 W/m2
14:17 28 °C 18.4 °C 1010.5 hPa Calm   4.8 km/h 56% 0.0 mm 483 W/m2
14:22 28.3 °C 17.8 °C 1010.2 hPa Calm   3.2 km/h 53% 0.0 mm 466 W/m2
14:27 28.6 °C 17.8 °C 1010.5 hPa East 3.2 km/h 6.4 km/h 52% 0.0 mm 570 W/m2
14:32 28.8 °C 18 °C 1010.5 hPa West 9.7 km/h 11.3 km/h 52% 0.0 mm 974 W/m2
14:37 29 °C 17.5 °C 1010.5 hPa SSW 1.4 km/h 4.8 km/h 50% 0.0 mm 610 W/m2
14:42 29.1 °C 17.6 °C 1010.5 hPa WNW 3.2 km/h 11.3 km/h 50% 0.0 mm 334 W/m2
14:47 28.9 °C 17.7 °C 1010.5 hPa WNW 6.4 km/h 9.7 km/h 51% 0.0 mm 396 W/m2
14:52 28.7 °C 17.9 °C 1010.5 hPa WNW 11.1 km/h 11.3 km/h 52% 0.0 mm 369 W/m2
14:57 28.7 °C 17.2 °C 1010.5 hPa West 4.7 km/h 4.8 km/h 50% 0.0 mm 434 W/m2
15:02 28.8 °C 17.7 °C 1010.5 hPa NE 1.4 km/h 4.8 km/h 51% 0.0 mm 422 W/m2
15:07 28.9 °C 17.7 °C 1010.5 hPa Calm   4.8 km/h 51% 0.0 mm 380 W/m2
15:12 29.1 °C 17.6 °C 1010.8 hPa North 3.2 km/h 8 km/h 50% 0.0 mm 269 W/m2
15:17 29.1 °C 17.9 °C 1010.5 hPa WNW 4.7 km/h 4.8 km/h 51% 0.0 mm 404 W/m2
15:22 28.9 °C 18.1 °C 1010.5 hPa NW 4.7 km/h 8 km/h 52% 0.0 mm 251 W/m2
15:27 28.7 °C 17.9 °C 1010.5 hPa WNW 3.2 km/h 11.3 km/h 52% 0.0 mm 287 W/m2
15:32 28.7 °C 18.2 °C 1010.2 hPa West 3.2 km/h 11.3 km/h 53% 0.0 mm 332 W/m2
15:37 28.6 °C 17.8 °C 1010.2 hPa NNW 1.4 km/h 6.4 km/h 52% 0.0 mm 287 W/m2
15:42 28.6 °C 17.8 °C 1010.2 hPa WNW 4.7 km/h 6.4 km/h 52% 0.0 mm 334 W/m2
15:47 28.7 °C 18.2 °C 1010.2 hPa SW 3.2 km/h 6.4 km/h 53% 0.0 mm 360 W/m2
15:52 28.6 °C 17.8 °C 1010.5 hPa NW 7.9 km/h 11.3 km/h 52% 0.0 mm 295 W/m2
15:57 28.6 °C 18.1 °C 1010.2 hPa NW 3.2 km/h 8 km/h 53% 0.0 mm 258 W/m2
16:02 28.6 °C 18.1 °C 1010.2 hPa West 3.2 km/h 4.8 km/h 53% 0.0 mm 237 W/m2
16:07 28.6 °C 17.8 °C 1010.5 hPa NW 4.7 km/h 6.4 km/h 52% 0.0 mm 401 W/m2
16:12 28.7 °C 18.2 °C 1010.2 hPa North 1.4 km/h 4.8 km/h 53% 0.0 mm 380 W/m2
16:17 28.8 °C 18 °C 1010.2 hPa NW 3.2 km/h 8 km/h 52% 0.0 mm 385 W/m2
16:22 29 °C 18.5 °C 1010.2 hPa North 4.7 km/h 4.8 km/h 53% 0.0 mm 396 W/m2
16:27 29.1 °C 18.5 °C 1010.2 hPa West 9.7 km/h 12.9 km/h 53% 0.0 mm 311 W/m2
16:32 29.1 °C 18.5 °C 1010.5 hPa WNW 13 km/h 12.9 km/h 53% 0.0 mm 387 W/m2
16:37 29.3 °C 18.4 °C 1010.5 hPa WNW 4.7 km/h 6.4 km/h 52% 0.0 mm 680 W/m2
16:42 29.6 °C 18.7 °C 1010.2 hPa WNW 1.4 km/h 4.8 km/h 52% 0.0 mm 647 W/m2
16:47 29.6 °C 18.4 °C 1010.5 hPa WSW 7.9 km/h 14.5 km/h 51% 0.0 mm 199 W/m2
16:52 29.3 °C 18.7 °C 1010.5 hPa West 4.7 km/h 12.9 km/h 53% 0.0 mm 292 W/m2
16:57 29 °C 18.1 °C 1010.5 hPa NW 3.2 km/h 8 km/h 52% 0.0 mm 155 W/m2
17:02 28.9 °C 18.4 °C 1010.5 hPa West 1.4 km/h 12.9 km/h 53% 0.0 mm 148 W/m2
17:07 28.8 °C 18.3 °C 1010.5 hPa Calm   3.2 km/h 53% 0.0 mm 380 W/m2
17:12 28.9 °C 18.7 °C 1010.5 hPa West 3.2 km/h 9.7 km/h 54% 0.0 mm 388 W/m2
17:17 29.1 °C 18.8 °C 1010.5 hPa NW 7.9 km/h 12.9 km/h 54% 0.0 mm 517 W/m2
17:22 29.1 °C 18.5 °C 1010.8 hPa WSW 3.2 km/h 8 km/h 53% 0.0 mm 287 W/m2
17:27 29.3 °C 19 °C 1010.8 hPa WNW 4.7 km/h 8 km/h 54% 0.0 mm 292 W/m2
17:32 29.2 °C 18.6 °C 1010.8 hPa West 6.4 km/h 16.1 km/h 53% 0.0 mm 216 W/m2
17:37 28.8 °C 18.6 °C 1010.8 hPa Calm   9.7 km/h 54% 0.0 mm 178 W/m2
17:42 28.7 °C 18.8 °C 1010.5 hPa NW 3.2 km/h 14.5 km/h 55% 0.0 mm 181 W/m2
17:48 28.6 °C 18.7 °C 1010.8 hPa West 6.4 km/h 11.3 km/h 55% 0.0 mm 190 W/m2
17:53 28.4 °C 18.8 °C 1010.8 hPa WNW 3.2 km/h 14.5 km/h 56% 0.0 mm 162 W/m2
17:58 28.3 °C 18.7 °C 1010.8 hPa West 1.4 km/h 6.4 km/h 56% 0.0 mm 113 W/m2
18:03 28.2 °C 18.3 °C 1010.8 hPa WNW 7.9 km/h 11.3 km/h 55% 0.0 mm 135 W/m2
18:08 28.1 °C 18.5 °C 1010.8 hPa West 6.4 km/h 12.9 km/h 56% 0.0 mm 102 W/m2
18:13 27.9 °C 18.6 °C 1010.8 hPa WNW 1.4 km/h 3.2 km/h 57% 0.0 mm 93 W/m2
18:18 27.8 °C 18.5 °C 1010.8 hPa West 4.7 km/h 4.8 km/h 57% 0.0 mm 123 W/m2
18:23 27.7 °C 19 °C 1010.8 hPa West 1.4 km/h 6.4 km/h 59% 0.0 mm 70 W/m2
18:28 27.5 °C 19 °C 1010.8 hPa WSW 1.4 km/h 6.4 km/h 60% 0.0 mm 72 W/m2
18:33 27.3 °C 19.6 °C 1010.8 hPa Calm     63% 0.0 mm 46 W/m2
18:38 27.1 °C 19.4 °C 1010.8 hPa Calm   6.4 km/h 63% 0.0 mm 53 W/m2
18:43 26.9 °C 19 °C 1010.5 hPa WNW 3.2 km/h 8 km/h 62% 0.0 mm 86 W/m2
18:48 27.1 °C 19.7 °C 1010.5 hPa WNW 6.4 km/h 6.4 km/h 64% 0.0 mm 373 W/m2
18:53 27.1 °C 19.4 °C 1010.8 hPa WNW 3.2 km/h 11.3 km/h 63% 0.0 mm 206 W/m2
18:58 27.1 °C 19.4 °C 1010.8 hPa West 1.4 km/h 4.8 km/h 63% 0.0 mm 345 W/m2
19:03 27.1 °C 19.4 °C 1010.8 hPa NW 1.4 km/h 6.4 km/h 63% 0.0 mm 120 W/m2
19:08 27 °C 19.6 °C 1010.8 hPa NW 3.2 km/h 3.2 km/h 64% 0.0 mm 65 W/m2
19:13 26.8 °C 19.4 °C 1010.8 hPa NNE 3.2 km/h 6.4 km/h 64% 0.0 mm 42 W/m2
Juneau County Weather
Compliments of Weather Underground - 4 mb